sensor_id;sensor_type;location;lat;lon;timestamp;temperature;humidity
35129;DHT22;21301;43.626;10.580;2022-07-17T00:01:43;25.70;99.90
35129;DHT22;21301;43.626;10.580;2022-07-17T00:04:09;25.50;99.90
35129;DHT22;21301;43.626;10.580;2022-07-17T00:06:35;25.60;99.90
35129;DHT22;21301;43.626;10.580;2022-07-17T00:09:01;25.60;99.90
35129;DHT22;21301;43.626;10.580;2022-07-17T00:11:27;25.60;99.90
35129;DHT22;21301;43.626;10.580;2022-07-17T00:13:53;25.60;99.90
35129;DHT22;21301;43.626;10.580;2022-07-17T00:16:19;25.60;99.90
35129;DHT22;21301;43.626;10.580;2022-07-17T00:18:45;25.60;99.90
35129;DHT22;21301;43.626;10.580;2022-07-17T00:21:11;25.80;99.90
35129;DHT22;21301;43.626;10.580;2022-07-17T00:23:37;25.90;99.90
35129;DHT22;21301;43.626;10.580;2022-07-17T00:26:02;25.90;99.90
35129;DHT22;21301;43.626;10.580;2022-07-17T00:28:28;25.80;99.90
35129;DHT22;21301;43.626;10.580;2022-07-17T00:30:54;25.50;99.90
35129;DHT22;21301;43.626;10.580;2022-07-17T00:33:20;25.20;99.90
35129;DHT22;21301;43.626;10.580;2022-07-17T00:35:45;25.00;99.90
35129;DHT22;21301;43.626;10.580;2022-07-17T00:38:11;24.90;99.90
35129;DHT22;21301;43.626;10.580;2022-07-17T00:40:39;24.70;99.90
35129;DHT22;21301;43.626;10.580;2022-07-17T00:43:05;24.50;99.90
35129;DHT22;21301;43.626;10.580;2022-07-17T00:45:30;24.40;99.90
35129;DHT22;21301;43.626;10.580;2022-07-17T00:47:58;24.30;99.90
35129;DHT22;21301;43.626;10.580;2022-07-17T00:50:28;24.30;99.90
35129;DHT22;21301;43.626;10.580;2022-07-17T00:52:54;24.20;99.90
35129;DHT22;21301;43.626;10.580;2022-07-17T00:55:20;24.20;99.90
35129;DHT22;21301;43.626;10.580;2022-07-17T00:57:47;24.30;99.90
35129;DHT22;21301;43.626;10.580;2022-07-17T01:00:14;24.30;99.90
35129;DHT22;21301;43.626;10.580;2022-07-17T01:02:45;24.30;99.90
35129;DHT22;21301;43.626;10.580;2022-07-17T01:05:11;24.40;99.90
35129;DHT22;21301;43.626;10.580;2022-07-17T01:07:37;24.50;99.90
35129;DHT22;21301;43.626;10.580;2022-07-17T01:10:03;24.40;99.90
35129;DHT22;21301;43.626;10.580;2022-07-17T01:12:30;24.30;99.90
35129;DHT22;21301;43.626;10.580;2022-07-17T01:14:57;24.40;99.90
35129;DHT22;21301;43.626;10.580;2022-07-17T01:17:23;24.50;99.90
35129;DHT22;21301;43.626;10.580;2022-07-17T01:19:49;24.70;99.90
35129;DHT22;21301;43.626;10.580;2022-07-17T01:22:15;24.70;99.90
35129;DHT22;21301;43.626;10.580;2022-07-17T01:24:41;24.90;99.90
35129;DHT22;21301;43.626;10.580;2022-07-17T01:27:07;24.90;99.90
35129;DHT22;21301;43.626;10.580;2022-07-17T01:29:36;24.90;99.90
35129;DHT22;21301;43.626;10.580;2022-07-17T01:32:01;25.10;99.90
35129;DHT22;21301;43.626;10.580;2022-07-17T01:34:27;25.20;99.90
35129;DHT22;21301;43.626;10.580;2022-07-17T01:36:53;25.20;99.90
35129;DHT22;21301;43.626;10.580;2022-07-17T01:39:19;25.30;99.90
35129;DHT22;21301;43.626;10.580;2022-07-17T01:42:04;25.40;99.90
35129;DHT22;21301;43.626;10.580;2022-07-17T01:44:30;25.50;99.90
35129;DHT22;21301;43.626;10.580;2022-07-17T01:46:56;25.60;99.90
35129;DHT22;21301;43.626;10.580;2022-07-17T01:49:22;25.60;99.90
35129;DHT22;21301;43.626;10.580;2022-07-17T01:51:47;25.50;99.90
35129;DHT22;21301;43.626;10.580;2022-07-17T01:54:13;25.70;99.90
35129;DHT22;21301;43.626;10.580;2022-07-17T01:56:39;25.50;99.90
35129;DHT22;21301;43.626;10.580;2022-07-17T01:59:05;25.60;99.90
35129;DHT22;21301;43.626;10.580;2022-07-17T02:01:31;25.50;99.90
35129;DHT22;21301;43.626;10.580;2022-07-17T02:03:56;25.30;99.90
35129;DHT22;21301;43.626;10.580;2022-07-17T02:06:22;25.10;99.90
35129;DHT22;21301;43.626;10.580;2022-07-17T02:08:48;25.00;99.90
35129;DHT22;21301;43.626;10.580;2022-07-17T02:11:17;25.00;99.90
35129;DHT22;21301;43.626;10.580;2022-07-17T02:13:43;24.90;99.90
35129;DHT22;21301;43.626;10.580;2022-07-17T02:16:08;24.80;99.90
35129;DHT22;21301;43.626;10.580;2022-07-17T02:18:34;24.60;99.90
35129;DHT22;21301;43.626;10.580;2022-07-17T02:21:01;24.30;99.90
35129;DHT22;21301;43.626;10.580;2022-07-17T02:23:27;23.90;99.90
35129;DHT22;21301;43.626;10.580;2022-07-17T02:25:54;23.90;99.90
35129;DHT22;21301;43.626;10.580;2022-07-17T02:28:20;23.80;99.90
35129;DHT22;21301;43.626;10.580;2022-07-17T02:30:46;23.90;99.90
35129;DHT22;21301;43.626;10.580;2022-07-17T02:33:12;23.80;99.90
35129;DHT22;21301;43.626;10.580;2022-07-17T02:35:38;23.80;99.90
35129;DHT22;21301;43.626;10.580;2022-07-17T02:38:04;23.80;99.90
35129;DHT22;21301;43.626;10.580;2022-07-17T02:40:30;23.80;99.90
35129;DHT22;21301;43.626;10.580;2022-07-17T02:42:55;23.70;99.90
35129;DHT22;21301;43.626;10.580;2022-07-17T02:45:21;23.50;99.90
35129;DHT22;21301;43.626;10.580;2022-07-17T02:47:50;23.40;99.90
35129;DHT22;21301;43.626;10.580;2022-07-17T02:50:16;23.30;99.90
35129;DHT22;21301;43.626;10.580;2022-07-17T02:52:42;23.20;99.90
35129;DHT22;21301;43.626;10.580;2022-07-17T02:55:10;23.20;99.90
35129;DHT22;21301;43.626;10.580;2022-07-17T02:57:37;23.20;99.90
35129;DHT22;21301;43.626;10.580;2022-07-17T03:00:08;23.20;99.90
35129;DHT22;21301;43.626;10.580;2022-07-17T03:02:34;23.20;99.90
35129;DHT22;21301;43.626;10.580;2022-07-17T03:05:00;23.30;99.90
35129;DHT22;21301;43.626;10.580;2022-07-17T03:07:26;23.30;99.90
35129;DHT22;21301;43.626;10.580;2022-07-17T03:09:51;23.20;99.90
35129;DHT22;21301;43.626;10.580;2022-07-17T03:12:17;23.00;99.90
35129;DHT22;21301;43.626;10.580;2022-07-17T03:14:43;23.00;99.90
35129;DHT22;21301;43.626;10.580;2022-07-17T03:17:09;23.10;99.90
35129;DHT22;21301;43.626;10.580;2022-07-17T03:19:35;23.00;99.90
35129;DHT22;21301;43.626;10.580;2022-07-17T03:22:01;22.90;99.90
35129;DHT22;21301;43.626;10.580;2022-07-17T03:24:26;22.80;99.90
35129;DHT22;21301;43.626;10.580;2022-07-17T03:26:52;22.70;99.90
35129;DHT22;21301;43.626;10.580;2022-07-17T03:29:18;22.60;99.90
35129;DHT22;21301;43.626;10.580;2022-07-17T03:31:45;22.60;99.90
35129;DHT22;21301;43.626;10.580;2022-07-17T03:34:11;22.40;99.90
35129;DHT22;21301;43.626;10.580;2022-07-17T03:36:37;22.40;99.90
35129;DHT22;21301;43.626;10.580;2022-07-17T03:39:03;22.40;99.90
35129;DHT22;21301;43.626;10.580;2022-07-17T03:41:29;22.40;99.90
35129;DHT22;21301;43.626;10.580;2022-07-17T03:43:54;22.30;99.90
35129;DHT22;21301;43.626;10.580;2022-07-17T03:46:21;22.40;99.90
35129;DHT22;21301;43.626;10.580;2022-07-17T03:48:47;22.50;99.90
35129;DHT22;21301;43.626;10.580;2022-07-17T03:51:12;22.50;99.90
35129;DHT22;21301;43.626;10.580;2022-07-17T03:53:38;22.50;99.90
35129;DHT22;21301;43.626;10.580;2022-07-17T03:56:04;22.40;99.90
35129;DHT22;21301;43.626;10.580;2022-07-17T03:58:30;22.30;99.90
35129;DHT22;21301;43.626;10.580;2022-07-17T04:00:57;22.20;99.90
35129;DHT22;21301;43.626;10.580;2022-07-17T04:03:23;22.30;99.90
35129;DHT22;21301;43.626;10.580;2022-07-17T04:05:49;22.30;99.90
35129;DHT22;21301;43.626;10.580;2022-07-17T04:08:15;22.30;99.90
35129;DHT22;21301;43.626;10.580;2022-07-17T04:10:42;22.30;99.90
35129;DHT22;21301;43.626;10.580;2022-07-17T04:13:08;22.30;99.90
35129;DHT22;21301;43.626;10.580;2022-07-17T04:15:34;22.40;99.90
35129;DHT22;21301;43.626;10.580;2022-07-17T04:18:22;22.50;99.90
35129;DHT22;21301;43.626;10.580;2022-07-17T04:20:49;22.60;99.90
35129;DHT22;21301;43.626;10.580;2022-07-17T04:23:15;22.70;99.90
35129;DHT22;21301;43.626;10.580;2022-07-17T04:25:41;22.80;99.90
35129;DHT22;21301;43.626;10.580;2022-07-17T04:28:08;22.90;99.90
35129;DHT22;21301;43.626;10.580;2022-07-17T04:30:34;23.20;99.90
35129;DHT22;21301;43.626;10.580;2022-07-17T04:33:00;23.30;99.90
35129;DHT22;21301;43.626;10.580;2022-07-17T04:35:26;23.40;99.90
35129;DHT22;21301;43.626;10.580;2022-07-17T04:37:52;23.50;99.90
35129;DHT22;21301;43.626;10.580;2022-07-17T04:40:18;23.60;99.90
35129;DHT22;21301;43.626;10.580;2022-07-17T04:42:44;23.70;99.90
35129;DHT22;21301;43.626;10.580;2022-07-17T04:45:11;23.80;99.90
35129;DHT22;21301;43.626;10.580;2022-07-17T04:47:37;24.00;99.90
35129;DHT22;21301;43.626;10.580;2022-07-17T04:50:03;24.10;99.90
35129;DHT22;21301;43.626;10.580;2022-07-17T04:52:29;24.10;99.90
35129;DHT22;21301;43.626;10.580;2022-07-17T04:54:54;24.00;99.90
35129;DHT22;21301;43.626;10.580;2022-07-17T04:57:20;24.10;99.90
35129;DHT22;21301;43.626;10.580;2022-07-17T04:59:46;24.10;99.90
35129;DHT22;21301;43.626;10.580;2022-07-17T05:02:12;24.20;99.90
35129;DHT22;21301;43.626;10.580;2022-07-17T05:04:38;24.40;99.90
35129;DHT22;21301;43.626;10.580;2022-07-17T05:07:03;24.70;99.90
35129;DHT22;21301;43.626;10.580;2022-07-17T05:09:29;24.90;99.90
35129;DHT22;21301;43.626;10.580;2022-07-17T05:11:55;24.90;99.90
35129;DHT22;21301;43.626;10.580;2022-07-17T05:14:21;24.90;99.90
35129;DHT22;21301;43.626;10.580;2022-07-17T05:16:46;25.00;99.90
35129;DHT22;21301;43.626;10.580;2022-07-17T05:19:12;25.20;99.90
35129;DHT22;21301;43.626;10.580;2022-07-17T05:21:38;25.40;99.90
35129;DHT22;21301;43.626;10.580;2022-07-17T05:24:04;25.50;99.90
35129;DHT22;21301;43.626;10.580;2022-07-17T05:26:30;25.60;99.90
35129;DHT22;21301;43.626;10.580;2022-07-17T05:28:56;25.60;99.90
35129;DHT22;21301;43.626;10.580;2022-07-17T05:31:22;25.60;99.90
35129;DHT22;21301;43.626;10.580;2022-07-17T05:33:47;25.80;99.90
35129;DHT22;21301;43.626;10.580;2022-07-17T05:36:13;25.80;99.90
35129;DHT22;21301;43.626;10.580;2022-07-17T05:38:39;25.90;99.90
35129;DHT22;21301;43.626;10.580;2022-07-17T05:41:05;26.10;99.90
35129;DHT22;21301;43.626;10.580;2022-07-17T05:43:31;26.00;99.90
35129;DHT22;21301;43.626;10.580;2022-07-17T05:45:58;26.00;99.90
35129;DHT22;21301;43.626;10.580;2022-07-17T05:48:25;26.10;99.90
35129;DHT22;21301;43.626;10.580;2022-07-17T05:50:51;26.20;99.90
35129;DHT22;21301;43.626;10.580;2022-07-17T05:53:16;26.50;99.90
35129;DHT22;21301;43.626;10.580;2022-07-17T05:55:42;26.40;99.90
35129;DHT22;21301;43.626;10.580;2022-07-17T05:58:08;26.40;99.90
35129;DHT22;21301;43.626;10.580;2022-07-17T06:00:34;26.40;99.90
35129;DHT22;21301;43.626;10.580;2022-07-17T06:03:01;26.70;99.90
35129;DHT22;21301;43.626;10.580;2022-07-17T06:05:27;26.70;99.90
35129;DHT22;21301;43.626;10.580;2022-07-17T06:07:54;26.90;99.90
35129;DHT22;21301;43.626;10.580;2022-07-17T06:10:20;26.70;99.90
35129;DHT22;21301;43.626;10.580;2022-07-17T06:12:46;26.70;99.90
35129;DHT22;21301;43.626;10.580;2022-07-17T06:15:12;26.50;99.90
35129;DHT22;21301;43.626;10.580;2022-07-17T06:17:38;26.70;99.90
35129;DHT22;21301;43.626;10.580;2022-07-17T06:20:04;26.80;99.90
35129;DHT22;21301;43.626;10.580;2022-07-17T06:22:31;27.00;99.90
35129;DHT22;21301;43.626;10.580;2022-07-17T06:24:59;27.30;99.90
35129;DHT22;21301;43.626;10.580;2022-07-17T06:27:25;27.80;99.90
35129;DHT22;21301;43.626;10.580;2022-07-17T06:29:51;27.70;99.90
35129;DHT22;21301;43.626;10.580;2022-07-17T06:32:17;27.70;99.90
35129;DHT22;21301;43.626;10.580;2022-07-17T06:34:43;27.80;99.90
35129;DHT22;21301;43.626;10.580;2022-07-17T06:37:09;27.90;99.90
35129;DHT22;21301;43.626;10.580;2022-07-17T06:39:35;28.10;99.90
35129;DHT22;21301;43.626;10.580;2022-07-17T06:42:01;28.20;99.90
35129;DHT22;21301;43.626;10.580;2022-07-17T06:44:30;28.40;99.90
35129;DHT22;21301;43.626;10.580;2022-07-17T06:46:56;28.40;99.90
35129;DHT22;21301;43.626;10.580;2022-07-17T06:49:21;28.40;99.90
35129;DHT22;21301;43.626;10.580;2022-07-17T06:51:47;28.50;99.90
35129;DHT22;21301;43.626;10.580;2022-07-17T06:54:14;28.80;99.90
35129;DHT22;21301;43.626;10.580;2022-07-17T06:56:41;29.30;99.90
35129;DHT22;21301;43.626;10.580;2022-07-17T06:59:07;29.70;99.90
35129;DHT22;21301;43.626;10.580;2022-07-17T07:01:38;29.80;99.90
35129;DHT22;21301;43.626;10.580;2022-07-17T07:04:04;29.80;99.90
35129;DHT22;21301;43.626;10.580;2022-07-17T07:06:30;29.80;99.90
35129;DHT22;21301;43.626;10.580;2022-07-17T07:08:56;29.80;99.90
35129;DHT22;21301;43.626;10.580;2022-07-17T07:11:23;30.20;99.90
35129;DHT22;21301;43.626;10.580;2022-07-17T07:13:49;30.40;99.90
35129;DHT22;21301;43.626;10.580;2022-07-17T07:16:15;30.60;99.90
35129;DHT22;21301;43.626;10.580;2022-07-17T07:18:41;30.70;99.90
35129;DHT22;21301;43.626;10.580;2022-07-17T07:21:07;30.90;99.90
35129;DHT22;21301;43.626;10.580;2022-07-17T07:23:33;31.20;99.90
35129;DHT22;21301;43.626;10.580;2022-07-17T07:25:59;31.30;99.90
35129;DHT22;21301;43.626;10.580;2022-07-17T07:28:25;31.60;99.90
35129;DHT22;21301;43.626;10.580;2022-07-17T07:30:51;31.50;99.40
35129;DHT22;21301;43.626;10.580;2022-07-17T07:33:17;31.80;98.90
35129;DHT22;21301;43.626;10.580;2022-07-17T07:35:43;31.80;98.30
35129;DHT22;21301;43.626;10.580;2022-07-17T07:38:09;32.20;98.10
35129;DHT22;21301;43.626;10.580;2022-07-17T07:40:36;32.10;97.70
35129;DHT22;21301;43.626;10.580;2022-07-17T07:43:02;31.90;97.80
35129;DHT22;21301;43.626;10.580;2022-07-17T07:45:28;32.00;98.00
35129;DHT22;21301;43.626;10.580;2022-07-17T07:47:54;32.60;97.70
35129;DHT22;21301;43.626;10.580;2022-07-17T07:50:22;33.20;97.20
35129;DHT22;21301;43.626;10.580;2022-07-17T07:52:49;33.00;96.90
35129;DHT22;21301;43.626;10.580;2022-07-17T07:55:15;33.10;97.00
35129;DHT22;21301;43.626;10.580;2022-07-17T07:57:41;33.90;96.70
35129;DHT22;21301;43.626;10.580;2022-07-17T08:00:10;33.70;96.20
35129;DHT22;21301;43.626;10.580;2022-07-17T08:02:40;33.60;96.70
35129;DHT22;21301;43.626;10.580;2022-07-17T08:05:07;33.10;96.70
35129;DHT22;21301;43.626;10.580;2022-07-17T08:07:35;34.10;96.50
35129;DHT22;21301;43.626;10.580;2022-07-17T08:10:03;34.50;96.00
35129;DHT22;21301;43.626;10.580;2022-07-17T08:12:29;34.60;95.90
35129;DHT22;21301;43.626;10.580;2022-07-17T08:14:54;34.20;95.80
35129;DHT22;21301;43.626;10.580;2022-07-17T08:17:20;34.50;96.10
35129;DHT22;21301;43.626;10.580;2022-07-17T08:19:46;34.50;95.80
35129;DHT22;21301;43.626;10.580;2022-07-17T08:22:11;34.60;95.50
35129;DHT22;21301;43.626;10.580;2022-07-17T08:24:38;34.90;95.40
35129;DHT22;21301;43.626;10.580;2022-07-17T08:27:04;34.90;95.30
35129;DHT22;21301;43.626;10.580;2022-07-17T08:29:30;34.80;95.10
35129;DHT22;21301;43.626;10.580;2022-07-17T08:31:56;35.10;94.80
35129;DHT22;21301;43.626;10.580;2022-07-17T08:34:22;35.10;94.60
35129;DHT22;21301;43.626;10.580;2022-07-17T08:36:48;34.80;94.50
35129;DHT22;21301;43.626;10.580;2022-07-17T08:39:14;34.80;94.40
35129;DHT22;21301;43.626;10.580;2022-07-17T08:41:40;35.00;94.20
35129;DHT22;21301;43.626;10.580;2022-07-17T08:44:07;35.10;94.10
35129;DHT22;21301;43.626;10.580;2022-07-17T08:46:35;35.20;93.80
35129;DHT22;21301;43.626;10.580;2022-07-17T08:49:02;34.90;93.70
35129;DHT22;21301;43.626;10.580;2022-07-17T08:51:29;35.10;93.50
35129;DHT22;21301;43.626;10.580;2022-07-17T08:53:56;35.10;93.00
35129;DHT22;21301;43.626;10.580;2022-07-17T08:56:23;35.10;93.10
35129;DHT22;21301;43.626;10.580;2022-07-17T08:58:50;35.20;92.70
35129;DHT22;21301;43.626;10.580;2022-07-17T09:01:18;35.50;92.60
35129;DHT22;21301;43.626;10.580;2022-07-17T09:03:54;35.80;92.20
35129;DHT22;21301;43.626;10.580;2022-07-17T09:06:21;35.60;91.50
35129;DHT22;21301;43.626;10.580;2022-07-17T09:08:47;36.00;92.10
35129;DHT22;21301;43.626;10.580;2022-07-17T09:11:13;35.90;92.00
35129;DHT22;21301;43.626;10.580;2022-07-17T09:13:44;35.80;91.90
35129;DHT22;21301;43.626;10.580;2022-07-17T09:16:11;35.60;91.40
35129;DHT22;21301;43.626;10.580;2022-07-17T09:18:49;35.70;91.60
35129;DHT22;21301;43.626;10.580;2022-07-17T09:21:20;35.80;90.70
35129;DHT22;21301;43.626;10.580;2022-07-17T09:24:06;35.50;90.70
35129;DHT22;21301;43.626;10.580;2022-07-17T09:26:33;35.60;91.20
35129;DHT22;21301;43.626;10.580;2022-07-17T09:29:03;35.70;90.80
35129;DHT22;21301;43.626;10.580;2022-07-17T09:31:31;36.20;90.70
35129;DHT22;21301;43.626;10.580;2022-07-17T09:33:58;36.20;90.30
35129;DHT22;21301;43.626;10.580;2022-07-17T09:36:25;36.10;90.20
35129;DHT22;21301;43.626;10.580;2022-07-17T09:38:55;35.70;89.90
35129;DHT22;21301;43.626;10.580;2022-07-17T09:41:23;35.90;88.80
35129;DHT22;21301;43.626;10.580;2022-07-17T09:43:52;36.30;88.00
35129;DHT22;21301;43.626;10.580;2022-07-17T09:48:59;36.80;86.50
35129;DHT22;21301;43.626;10.580;2022-07-17T09:51:28;37.10;87.40
35129;DHT22;21301;43.626;10.580;2022-07-17T09:53:57;37.00;86.10
35129;DHT22;21301;43.626;10.580;2022-07-17T09:56:25;37.10;84.00
35129;DHT22;21301;43.626;10.580;2022-07-17T09:58:58;37.30;84.30
35129;DHT22;21301;43.626;10.580;2022-07-17T10:01:25;37.40;83.60
35129;DHT22;21301;43.626;10.580;2022-07-17T10:03:51;37.30;84.60
35129;DHT22;21301;43.626;10.580;2022-07-17T10:06:20;37.30;84.50
35129;DHT22;21301;43.626;10.580;2022-07-17T10:08:47;37.20;84.20
35129;DHT22;21301;43.626;10.580;2022-07-17T10:11:13;37.20;84.50
35129;DHT22;21301;43.626;10.580;2022-07-17T10:13:43;37.30;84.00
35129;DHT22;21301;43.626;10.580;2022-07-17T10:16:13;37.10;83.90
35129;DHT22;21301;43.626;10.580;2022-07-17T10:18:44;36.80;83.70
35129;DHT22;21301;43.626;10.580;2022-07-17T10:21:15;36.50;83.90
35129;DHT22;21301;43.626;10.580;2022-07-17T10:23:46;37.20;84.50
35129;DHT22;21301;43.626;10.580;2022-07-17T10:26:13;37.60;84.00
35129;DHT22;21301;43.626;10.580;2022-07-17T10:28:46;37.50;82.80
35129;DHT22;21301;43.626;10.580;2022-07-17T10:31:29;37.60;81.10
35129;DHT22;21301;43.626;10.580;2022-07-17T10:34:05;37.80;80.80
35129;DHT22;21301;43.626;10.580;2022-07-17T10:36:39;37.90;81.00
35129;DHT22;21301;43.626;10.580;2022-07-17T10:39:17;38.10;81.60
35129;DHT22;21301;43.626;10.580;2022-07-17T10:41:56;38.20;79.30
35129;DHT22;21301;43.626;10.580;2022-07-17T10:44:27;38.10;79.60
35129;DHT22;21301;43.626;10.580;2022-07-17T10:46:56;37.90;80.10
35129;DHT22;21301;43.626;10.580;2022-07-17T10:49:23;38.30;80.50
35129;DHT22;21301;43.626;10.580;2022-07-17T10:51:49;38.50;79.90
35129;DHT22;21301;43.626;10.580;2022-07-17T10:54:17;38.70;79.70
35129;DHT22;21301;43.626;10.580;2022-07-17T10:56:43;38.60;79.70
35129;DHT22;21301;43.626;10.580;2022-07-17T10:59:12;38.60;79.00
35129;DHT22;21301;43.626;10.580;2022-07-17T11:01:38;38.10;78.60
35129;DHT22;21301;43.626;10.580;2022-07-17T11:04:05;38.20;78.60
35129;DHT22;21301;43.626;10.580;2022-07-17T11:06:36;38.00;78.40
35129;DHT22;21301;43.626;10.580;2022-07-17T11:09:09;38.00;77.30
35129;DHT22;21301;43.626;10.580;2022-07-17T11:11:48;37.80;78.20
35129;DHT22;21301;43.626;10.580;2022-07-17T11:14:22;38.10;76.60
35129;DHT22;21301;43.626;10.580;2022-07-17T11:16:52;38.10;77.90
35129;DHT22;21301;43.626;10.580;2022-07-17T11:19:50;38.30;77.60
35129;DHT22;21301;43.626;10.580;2022-07-17T11:22:16;38.30;75.10
35129;DHT22;21301;43.626;10.580;2022-07-17T11:24:45;38.20;77.50
35129;DHT22;21301;43.626;10.580;2022-07-17T11:27:12;38.20;76.60
35129;DHT22;21301;43.626;10.580;2022-07-17T11:29:43;37.80;76.40
35129;DHT22;21301;43.626;10.580;2022-07-17T11:32:09;37.90;77.10
35129;DHT22;21301;43.626;10.580;2022-07-17T11:34:35;38.20;77.10
35129;DHT22;21301;43.626;10.580;2022-07-17T11:37:07;38.50;77.10
35129;DHT22;21301;43.626;10.580;2022-07-17T11:39:42;38.70;75.70
35129;DHT22;21301;43.626;10.580;2022-07-17T11:42:10;38.90;76.70
35129;DHT22;21301;43.626;10.580;2022-07-17T11:44:37;38.70;76.70
35129;DHT22;21301;43.626;10.580;2022-07-17T11:47:03;38.00;76.90
35129;DHT22;21301;43.626;10.580;2022-07-17T11:49:32;38.20;77.50
35129;DHT22;21301;43.626;10.580;2022-07-17T11:52:11;38.00;75.80
35129;DHT22;21301;43.626;10.580;2022-07-17T11:54:45;38.10;75.80
35129;DHT22;21301;43.626;10.580;2022-07-17T11:57:11;38.30;75.60
35129;DHT22;21301;43.626;10.580;2022-07-17T11:59:37;38.70;75.90
35129;DHT22;21301;43.626;10.580;2022-07-17T12:02:14;38.90;75.40
35129;DHT22;21301;43.626;10.580;2022-07-17T12:04:50;39.10;74.50
35129;DHT22;21301;43.626;10.580;2022-07-17T12:07:19;39.20;73.10
35129;DHT22;21301;43.626;10.580;2022-07-17T12:09:46;39.10;74.00
35129;DHT22;21301;43.626;10.580;2022-07-17T12:12:38;38.90;74.10
35129;DHT22;21301;43.626;10.580;2022-07-17T12:15:04;38.40;72.50
35129;DHT22;21301;43.626;10.580;2022-07-17T12:17:39;38.10;79.60
35129;DHT22;21301;43.626;10.580;2022-07-17T12:20:07;37.80;82.00
35129;DHT22;21301;43.626;10.580;2022-07-17T12:22:48;37.40;82.50
35129;DHT22;21301;43.626;10.580;2022-07-17T12:25:26;37.50;83.70
35129;DHT22;21301;43.626;10.580;2022-07-17T12:27:52;37.20;84.60
35129;DHT22;21301;43.626;10.580;2022-07-17T12:30:19;37.50;84.10
35129;DHT22;21301;43.626;10.580;2022-07-17T12:32:45;37.70;84.60
35129;DHT22;21301;43.626;10.580;2022-07-17T12:35:13;37.40;84.10
35129;DHT22;21301;43.626;10.580;2022-07-17T12:37:40;37.30;84.90
35129;DHT22;21301;43.626;10.580;2022-07-17T12:40:07;37.00;86.20
35129;DHT22;21301;43.626;10.580;2022-07-17T12:42:33;37.30;86.00
35129;DHT22;21301;43.626;10.580;2022-07-17T12:44:59;37.20;85.30
35129;DHT22;21301;43.626;10.580;2022-07-17T12:47:25;37.10;85.60
35129;DHT22;21301;43.626;10.580;2022-07-17T12:49:51;37.10;86.10
35129;DHT22;21301;43.626;10.580;2022-07-17T12:52:17;37.20;85.70
35129;DHT22;21301;43.626;10.580;2022-07-17T12:54:43;37.20;85.90
35129;DHT22;21301;43.626;10.580;2022-07-17T12:57:08;37.10;86.50
35129;DHT22;21301;43.626;10.580;2022-07-17T12:59:34;36.80;87.60
35129;DHT22;21301;43.626;10.580;2022-07-17T13:02:00;36.50;88.10
35129;DHT22;21301;43.626;10.580;2022-07-17T13:04:26;36.90;87.90
35129;DHT22;21301;43.626;10.580;2022-07-17T13:06:52;37.00;87.40
35129;DHT22;21301;43.626;10.580;2022-07-17T13:09:18;37.00;87.60
35129;DHT22;21301;43.626;10.580;2022-07-17T13:11:44;37.10;86.70
35129;DHT22;21301;43.626;10.580;2022-07-17T13:14:10;37.00;86.90
35129;DHT22;21301;43.626;10.580;2022-07-17T13:16:40;36.90;87.40
35129;DHT22;21301;43.626;10.580;2022-07-17T13:19:07;36.80;87.50
35129;DHT22;21301;43.626;10.580;2022-07-17T13:21:33;37.20;87.20
35129;DHT22;21301;43.626;10.580;2022-07-17T13:24:00;36.90;86.70
35129;DHT22;21301;43.626;10.580;2022-07-17T13:26:26;36.90;86.80
35129;DHT22;21301;43.626;10.580;2022-07-17T13:28:52;36.70;87.20
35129;DHT22;21301;43.626;10.580;2022-07-17T13:31:17;36.40;86.80
35129;DHT22;21301;43.626;10.580;2022-07-17T13:33:44;36.50;87.10
35129;DHT22;21301;43.626;10.580;2022-07-17T13:36:10;36.50;87.30
35129;DHT22;21301;43.626;10.580;2022-07-17T13:38:36;36.80;87.40
35129;DHT22;21301;43.626;10.580;2022-07-17T13:41:02;36.40;86.70
35129;DHT22;21301;43.626;10.580;2022-07-17T13:43:28;36.20;86.90
35129;DHT22;21301;43.626;10.580;2022-07-17T13:45:53;36.10;87.70
35129;DHT22;21301;43.626;10.580;2022-07-17T13:48:19;36.20;87.50
35129;DHT22;21301;43.626;10.580;2022-07-17T13:50:46;36.20;87.50
35129;DHT22;21301;43.626;10.580;2022-07-17T13:53:11;36.30;87.30
35129;DHT22;21301;43.626;10.580;2022-07-17T13:55:38;36.40;87.70
35129;DHT22;21301;43.626;10.580;2022-07-17T13:58:04;36.20;87.60
35129;DHT22;21301;43.626;10.580;2022-07-17T14:00:31;36.30;87.80
35129;DHT22;21301;43.626;10.580;2022-07-17T14:02:57;36.50;87.60
35129;DHT22;21301;43.626;10.580;2022-07-17T14:05:23;36.20;87.70
35129;DHT22;21301;43.626;10.580;2022-07-17T14:07:48;35.60;87.70
35129;DHT22;21301;43.626;10.580;2022-07-17T14:10:15;35.70;88.90
35129;DHT22;21301;43.626;10.580;2022-07-17T14:12:41;35.60;88.30
35129;DHT22;21301;43.626;10.580;2022-07-17T14:15:07;35.60;88.40
35129;DHT22;21301;43.626;10.580;2022-07-17T14:17:33;35.60;88.50
35129;DHT22;21301;43.626;10.580;2022-07-17T14:19:59;35.30;88.40
35129;DHT22;21301;43.626;10.580;2022-07-17T14:22:25;35.50;88.50
35129;DHT22;21301;43.626;10.580;2022-07-17T14:24:51;35.40;88.40
35129;DHT22;21301;43.626;10.580;2022-07-17T14:27:17;35.30;88.30
35129;DHT22;21301;43.626;10.580;2022-07-17T14:29:44;35.30;88.60
35129;DHT22;21301;43.626;10.580;2022-07-17T14:32:09;35.10;88.80
35129;DHT22;21301;43.626;10.580;2022-07-17T14:34:35;34.80;88.80
35129;DHT22;21301;43.626;10.580;2022-07-17T14:37:01;34.90;89.00
35129;DHT22;21301;43.626;10.580;2022-07-17T14:39:29;35.10;89.10
35129;DHT22;21301;43.626;10.580;2022-07-17T14:41:55;35.10;89.00
35129;DHT22;21301;43.626;10.580;2022-07-17T14:44:21;35.40;88.60
35129;DHT22;21301;43.626;10.580;2022-07-17T14:46:46;35.10;88.00
35129;DHT22;21301;43.626;10.580;2022-07-17T14:49:12;35.20;88.80
35129;DHT22;21301;43.626;10.580;2022-07-17T14:51:38;35.00;88.40
35129;DHT22;21301;43.626;10.580;2022-07-17T14:54:04;35.20;88.80
35129;DHT22;21301;43.626;10.580;2022-07-17T14:56:30;35.50;88.80
35129;DHT22;21301;43.626;10.580;2022-07-17T14:58:56;35.30;89.20
35129;DHT22;21301;43.626;10.580;2022-07-17T15:01:22;35.50;90.00
35129;DHT22;21301;43.626;10.580;2022-07-17T15:03:48;35.50;89.90
35129;DHT22;21301;43.626;10.580;2022-07-17T15:06:14;35.60;90.00
35129;DHT22;21301;43.626;10.580;2022-07-17T15:08:40;35.50;89.70
35129;DHT22;21301;43.626;10.580;2022-07-17T15:11:05;35.30;89.70
35129;DHT22;21301;43.626;10.580;2022-07-17T15:13:31;35.10;89.60
35129;DHT22;21301;43.626;10.580;2022-07-17T15:15:57;35.00;89.80
35129;DHT22;21301;43.626;10.580;2022-07-17T15:18:23;34.90;89.90